Time;durP1;ratioP1;P1;durP2;ratioP2;P2;SDS_P1;SDS_P2;PMS_P1;PMS_P2;Temp;Humidity;BMP_temperature;BMP_pressure;BME280_temperature;BME280_humidity;BME280_pressure;Samples;Min_cycle;Max_cycle;Signal;HPM_P1;HPM_P2
2021/06/08 00:00:01;;;;;;;7.32;4.10;;;538.10;1638.40;;;;;;5073569;28;20058;-63
2021/06/08 00:02:26;;;;;;;13.20;4.20;;;538.10;1638.40;;;;;;5073537;28;20385;-77
2021/06/08 00:04:53;;;;;;;8.30;4.63;;;538.10;1638.40;;;;;;5072639;28;20044;-77
2021/06/08 00:07:18;;;;;;;11.38;4.25;;;538.00;1638.40;;;;;;5073350;28;20031;-63
2021/06/08 00:09:44;;;;;;;8.88;4.80;;;538.00;1638.40;;;;;;5073307;28;20040;-62
2021/06/08 00:12:10;;;;;;;6.65;4.47;;;538.00;1638.40;;;;;;5073326;28;20101;-77
2021/06/08 00:14:36;;;;;;;9.20;5.10;;;537.90;1664.00;;;;;;5073148;28;20078;-76
2021/06/08 00:17:02;;;;;;;7.38;4.65;;;538.00;1638.40;;;;;;5073285;28;20035;-75
2021/06/08 00:19:28;;;;;;;7.90;4.43;;;537.90;1664.00;;;;;;5073269;28;20028;-77
2021/06/08 00:21:54;;;;;;;8.60;4.60;;;537.80;1664.00;;;;;;5073235;28;20179;-76
2021/06/08 00:24:20;;;;;;;11.25;5.30;;;537.90;1638.40;;;;;;5073178;28;20093;-76
2021/06/08 00:26:46;;;;;;;7.88;4.80;;;537.80;1664.00;;;;;;5073185;28;20021;-63
2021/06/08 00:29:12;;;;;;;6.75;4.72;;;537.80;1638.40;;;;;;5073225;28;20035;-64
2021/06/08 00:31:37;;;;;;;12.48;5.20;;;537.80;1638.40;;;;;;5072981;28;20107;-72
2021/06/08 00:34:03;;;;;;;7.65;4.68;;;537.70;1664.00;;;;;;5072966;28;20112;-62
2021/06/08 00:36:29;;;;;;;9.05;4.85;;;537.70;1664.00;;;;;;5073132;28;20017;-61
2021/06/08 00:38:55;;;;;;;9.05;4.80;;;537.70;1664.00;;;;;;5073338;28;20033;-62
2021/06/08 00:41:39;;;;;;;9.05;4.72;;;537.70;1664.00;;;;;;5073106;28;20012;-62
2021/06/08 00:44:06;;;;;;;9.90;5.20;;;537.60;1664.00;;;;;;5074540;28;20025;-62
2021/06/08 00:46:32;;;;;;;9.27;4.50;;;537.60;1664.00;;;;;;5077083;28;20020;-62
2021/06/08 00:48:59;;;;;;;9.85;5.13;;;537.70;1664.00;;;;;;5077552;28;20099;-62
2021/06/08 00:51:24;;;;;;;7.93;4.40;;;537.60;1664.00;;;;;;5076851;28;20025;-74
2021/06/08 00:53:53;;;;;;;6.40;4.68;;;537.60;1664.00;;;;;;5076904;28;20039;-62
2021/06/08 00:56:19;;;;;;;7.97;4.07;;;512.80;1664.00;;;;;;5076847;28;20021;-62
2021/06/08 00:58:45;;;;;;;8.82;4.30;;;512.70;1638.40;;;;;;5076626;28;20075;-63
2021/06/08 01:01:12;;;;;;;9.43;4.40;;;512.80;1638.40;;;;;;5076803;28;20492;-62
2021/06/08 01:03:38;;;;;;;7.13;4.47;;;512.80;1638.40;;;;;;5076668;28;20470;-76
2021/06/08 01:06:04;;;;;;;6.57;3.83;;;512.90;1638.40;;;;;;5076617;28;20027;-62
2021/06/08 01:08:30;;;;;;;6.18;4.60;;;512.90;1638.40;;;;;;5076618;28;20089;-62
2021/06/08 01:10:56;;;;;;;11.02;4.63;;;512.90;1638.40;;;;;;5076498;28;20025;-61
2021/06/08 01:13:22;;;;;;;15.13;4.72;;;512.90;1612.80;;;;;;5076453;28;20033;-62
2021/06/08 01:15:48;;;;;;;6.13;4.10;;;512.90;1612.80;;;;;;5075240;28;20111;-62
2021/06/08 01:18:14;;;;;;;7.80;4.78;;;537.60;1638.40;;;;;;5076459;28;20078;-62
2021/06/08 01:20:41;;;;;;;17.17;4.60;;;537.60;1638.40;;;;;;5076654;28;20025;-62
2021/06/08 01:23:07;;;;;;;7.90;4.55;;;512.90;1612.80;;;;;;5076334;28;20100;-62
2021/06/08 01:25:33;;;;;;;7.78;3.92;;;512.90;1612.80;;;;;;5076341;28;20095;-62
2021/06/08 01:27:59;;;;;;;14.25;4.63;;;512.90;1612.80;;;;;;5076234;28;20016;-62
2021/06/08 01:30:28;;;;;;;6.53;4.45;;;512.90;1612.80;;;;;;5076299;28;20029;-62
2021/06/08 01:32:55;;;;;;;10.05;4.35;;;537.60;1638.40;;;;;;5076112;28;20077;-62
2021/06/08 01:35:23;;;;;;;10.13;4.28;;;512.90;1612.80;;;;;;5076471;28;20021;-62
2021/06/08 01:37:49;;;;;;;5.75;3.88;;;512.80;1612.80;;;;;;5075977;28;20037;-62
2021/06/08 01:40:18;;;;;;;7.75;4.50;;;512.90;1612.80;;;;;;5076130;28;20031;-62
2021/06/08 01:42:46;;;;;;;6.38;4.47;;;512.90;1612.80;;;;;;5075940;28;20031;-76
2021/06/08 01:45:15;;;;;;;6.43;4.38;;;512.90;1587.20;;;;;;5075940;28;20017;-62
2021/06/08 01:47:41;;;;;;;11.15;4.63;;;512.90;1587.20;;;;;;5075921;28;20025;-77
2021/06/08 01:50:08;;;;;;;10.57;5.35;;;537.60;1612.80;;;;;;5075855;28;20024;-62
2021/06/08 01:52:49;;;;;;;12.75;4.82;;;512.90;1587.20;;;;;;5074537;28;20060;-68
2021/06/08 01:55:44;;;;;;;10.82;4.50;;;512.90;1587.20;;;;;;5074738;28;20037;-62
2021/06/08 01:58:28;;;;;;;5.55;4.43;;;512.90;1612.80;;;;;;5072434;28;20037;-62
2021/06/08 02:01:05;;;;;;;6.22;4.25;;;512.80;1612.80;;;;;;5074509;28;20031;-62
2021/06/08 02:03:41;;;;;;;12.75;4.50;;;512.80;1612.80;;;;;;5075667;28;20102;-61
2021/06/08 02:06:17;;;;;;;6.97;4.13;;;512.80;1612.80;;;;;;5075900;28;20028;-62
2021/06/08 02:08:43;;;;;;;7.72;4.57;;;512.80;1612.80;;;;;;5075982;28;20028;-62
2021/06/08 02:11:40;;;;;;;6.18;4.28;;;512.80;1612.80;;;;;;5075430;28;20024;-62
2021/06/08 02:14:15;;;;;;;6.15;4.40;;;512.70;1638.40;;;;;;5055981;28;20045;-62
2021/06/08 02:16:50;;;;;;;11.35;5.18;;;512.70;1638.40;;;;;;5075396;28;20381;-62
2021/06/08 02:19:19;;;;;;;13.30;4.93;;;512.60;1638.40;;;;;;5075514;28;20027;-62
2021/06/08 02:21:49;;;;;;;9.50;5.20;;;512.60;1638.40;;;;;;5073999;28;20027;-62
2021/06/08 02:24:20;;;;;;;9.15;5.05;;;512.50;1664.00;;;;;;5073995;28;20024;-62
2021/06/08 02:26:48;;;;;;;12.52;4.55;;;512.50;1664.00;;;;;;5075161;28;20027;-62
2021/06/08 02:29:16;;;;;;;9.15;4.75;;;512.50;1664.00;;;;;;5075147;28;20020;-62
2021/06/08 02:31:44;;;;;;;8.55;5.03;;;512.40;1664.00;;;;;;5075267;28;20024;-62
2021/06/08 02:34:12;;;;;;;8.00;5.22;;;512.30;1664.00;;;;;;5074964;28;20535;-62
2021/06/08 02:36:40;;;;;;;7.45;4.97;;;512.30;1689.60;;;;;;5075000;28;20029;-62
2021/06/08 02:39:06;;;;;;;11.68;5.22;;;512.20;1664.00;;;;;;5074955;28;20060;-62
2021/06/08 02:41:33;;;;;;;13.70;5.30;;;512.00;1715.20;;;;;;5075781;28;20048;-62
2021/06/08 02:44:01;;;;;;;11.45;5.68;;;487.30;1740.80;;;;;;5074772;28;20020;-62
2021/06/08 02:46:27;;;;;;;12.80;5.38;;;487.20;1740.80;;;;;;5072771;28;20021;-62
2021/06/08 02:48:54;;;;;;;11.13;5.28;;;487.20;1740.80;;;;;;5074425;28;20386;-62
2021/06/08 02:51:24;;;;;;;9.70;5.50;;;487.20;1740.80;;;;;;5074703;28;20021;-62
2021/06/08 02:53:53;;;;;;;7.93;5.03;;;487.30;1715.20;;;;;;5074726;28;20033;-62
2021/06/08 02:56:20;;;;;;;10.27;5.00;;;487.20;1740.80;;;;;;5074368;28;20013;-62
2021/06/08 02:58:47;;;;;;;9.07;5.10;;;487.20;1740.80;;;;;;5074392;28;20123;-62
2021/06/08 03:01:16;;;;;;;12.48;5.30;;;487.20;1740.80;;;;;;5074503;28;20027;-62
2021/06/08 03:03:44;;;;;;;11.43;5.78;;;487.20;1740.80;;;;;;5074460;28;20162;-78
2021/06/08 03:06:39;;;;;;;11.85;5.88;;;487.20;1740.80;;;;;;5074187;28;20025;-62
2021/06/08 03:09:15;;;;;;;11.00;5.80;;;487.20;1715.20;;;;;;5032617;28;20267;-62
2021/06/08 03:11:46;;;;;;;10.77;4.97;;;487.20;1740.80;;;;;;5032412;28;20442;-62
2021/06/08 03:14:15;;;;;;;8.57;5.25;;;487.10;1740.80;;;;;;5032517;28;20046;-62
2021/06/08 03:16:46;;;;;;;9.48;5.60;;;487.10;1740.80;;;;;;5032443;28;20064;-62
2021/06/08 03:19:15;;;;;;;9.85;5.93;;;487.10;1766.40;;;;;;5032326;28;20036;-62
2021/06/08 03:21:42;;;;;;;12.13;5.75;;;486.90;1766.40;;;;;;5032229;28;20036;-62
2021/06/08 03:24:13;;;;;;;9.90;5.50;;;486.80;1817.60;;;;;;5015622;28;20387;-62
2021/06/08 03:26:42;;;;;;;7.93;5.80;;;486.80;1817.60;;;;;;5032064;28;20034;-62
2021/06/08 03:29:11;;;;;;;9.07;6.63;;;486.90;1817.60;;;;;;5032051;28;20489;-62
2021/06/08 03:31:39;;;;;;;13.30;6.32;;;486.90;1792.00;;;;;;5032309;28;20363;-62
2021/06/08 03:34:07;;;;;;;10.20;6.40;;;486.90;1792.00;;;;;;5031883;28;20071;-62
2021/06/08 03:36:34;;;;;;;12.15;6.25;;;486.90;1792.00;;;;;;5032244;28;20033;-62
2021/06/08 03:39:01;;;;;;;32.50;7.47;;;486.90;1792.00;;;;;;5031896;28;20509;-62
2021/06/08 03:41:27;;;;;;;25.27;7.97;;;487.00;1766.40;;;;;;5032166;28;20537;-62
2021/06/08 03:43:54;;;;;;;16.23;7.32;;;487.10;1792.00;;;;;;5031734;28;20030;-62
2021/06/08 03:46:24;;;;;;;19.98;8.40;;;486.80;1817.60;;;;;;5062523;28;20028;-75
2021/06/08 03:48:51;;;;;;;21.65;9.15;;;486.80;1792.00;;;;;;5073677;28;20500;-62
2021/06/08 03:51:19;;;;;;;24.20;9.00;;;486.90;1792.00;;;;;;5073727;28;20024;-62
2021/06/08 03:53:45;;;;;;;22.67;9.07;;;487.00;1766.40;;;;;;5073546;28;20047;-63
2021/06/08 03:56:13;;;;;;;16.58;8.52;;;487.00;1766.40;;;;;;5073523;28;20092;-62
2021/06/08 03:58:41;;;;;;;21.58;8.55;;;487.10;1792.00;;;;;;5073517;28;20101;-63
2021/06/08 04:01:07;;;;;;;18.02;8.35;;;487.10;1792.00;;;;;;5073472;28;20052;-63
2021/06/08 04:03:34;;;;;;;14.40;7.03;;;487.10;1766.40;;;;;;5073487;28;20496;-62
2021/06/08 04:06:03;;;;;;;20.17;6.50;;;487.20;1766.40;;;;;;5073515;28;20157;-62
2021/06/08 04:08:29;;;;;;;10.13;6.18;;;487.10;1766.40;;;;;;5073428;28;20485;-62
2021/06/08 04:10:56;;;;;;;13.93;6.78;;;487.20;1766.40;;;;;;5073570;28;20025;-62
2021/06/08 04:13:23;;;;;;;12.82;6.15;;;487.10;1792.00;;;;;;5073848;28;20073;-76
2021/06/08 04:15:50;;;;;;;11.20;6.43;;;487.20;1766.40;;;;;;5073426;28;20181;-63
2021/06/08 04:18:16;;;;;;;15.05;6.57;;;487.30;1766.40;;;;;;5072642;28;20027;-62
2021/06/08 04:20:42;;;;;;;14.85;6.40;;;487.30;1766.40;;;;;;5073315;28;20496;-63
2021/06/08 04:23:09;;;;;;;12.43;6.47;;;512.00;1740.80;;;;;;5073915;28;20473;-63
2021/06/08 04:25:35;;;;;;;8.88;5.70;;;512.00;1740.80;;;;;;5073197;28;20064;-70
2021/06/08 04:28:02;;;;;;;17.65;6.63;;;512.00;1766.40;;;;;;5073325;28;20071;-75
2021/06/08 04:30:28;;;;;;;14.57;6.13;;;487.30;1766.40;;;;;;5073167;28;20020;-63
2021/06/08 04:32:54;;;;;;;13.68;6.00;;;512.10;1766.40;;;;;;5073259;28;20029;-62
2021/06/08 04:35:20;;;;;;;15.40;6.28;;;512.20;1740.80;;;;;;5073232;28;20362;-74
2021/06/08 04:37:47;;;;;;;12.57;6.65;;;512.30;1715.20;;;;;;5073083;28;20017;-63
2021/06/08 04:40:15;;;;;;;11.75;5.80;;;512.40;1715.20;;;;;;5073149;28;20021;-63
2021/06/08 04:42:47;;;;;;;15.15;6.25;;;512.50;1715.20;;;;;;5073458;28;20063;-62
2021/06/08 04:45:14;;;;;;;10.50;6.10;;;512.60;1715.20;;;;;;5073100;28;20032;-63
2021/06/08 04:47:40;;;;;;;12.05;6.00;;;512.60;1715.20;;;;;;5073116;28;20051;-63
2021/06/08 04:50:13;;;;;;;16.02;6.90;;;512.70;1715.20;;;;;;5073017;28;20546;-63
2021/06/08 04:52:39;;;;;;;11.27;6.47;;;512.60;1740.80;;;;;;5073259;28;20013;-63
2021/06/08 04:55:07;;;;;;;8.32;5.70;;;512.50;1740.80;;;;;;5072959;28;20074;-63
2021/06/08 04:57:34;;;;;;;7.82;5.63;;;512.60;1715.20;;;;;;5073655;28;20099;-65
2021/06/08 05:00:11;;;;;;;9.68;6.18;;;512.60;1740.80;;;;;;5072944;28;20043;-75
2021/06/08 05:02:59;;;;;;;12.77;6.82;;;512.50;1740.80;;;;;;5072924;28;20032;-63
2021/06/08 05:05:27;;;;;;;11.77;6.53;;;512.60;1715.20;;;;;;5073155;28;20389;-63
2021/06/08 05:08:15;;;;;;;11.93;6.63;;;512.70;1715.20;;;;;;5072931;28;20553;-62
2021/06/08 05:11:00;;;;;;;8.88;6.28;;;512.70;1740.80;;;;;;5073170;28;20017;-63
2021/06/08 05:13:27;;;;;;;9.02;7.68;;;512.80;1740.80;;;;;;5073031;28;20109;-63
2021/06/08 05:15:55;;;;;;;13.70;7.28;;;512.90;1715.20;;;;;;5072742;28;20048;-63
2021/06/08 05:18:22;;;;;;;11.85;7.40;;;537.60;1740.80;;;;;;5073041;28;20035;-62
2021/06/08 05:20:50;;;;;;;10.32;7.18;;;537.60;1766.40;;;;;;5072679;28;20389;-63
2021/06/08 05:23:17;;;;;;;14.63;6.93;;;537.60;1740.80;;;;;;5072778;28;20060;-63
2021/06/08 05:25:48;;;;;;;13.23;7.35;;;537.60;1766.40;;;;;;5073014;28;20373;-63
2021/06/08 05:28:15;;;;;;;14.40;7.32;;;537.60;1766.40;;;;;;5072755;28;20035;-63
2021/06/08 05:30:41;;;;;;;12.77;7.65;;;537.70;1740.80;;;;;;5074944;28;20378;-63
2021/06/08 05:33:11;;;;;;;14.73;7.00;;;537.70;1715.20;;;;;;5076123;28;20424;-63
2021/06/08 05:35:37;;;;;;;12.40;6.97;;;537.70;1715.20;;;;;;5076173;28;20081;-63
2021/06/08 05:38:05;;;;;;;10.65;6.22;;;537.80;1715.20;;;;;;5076166;28;20427;-63
2021/06/08 05:40:31;;;;;;;15.30;7.93;;;537.90;1715.20;;;;;;5076119;28;20027;-63
2021/06/08 05:42:57;;;;;;;13.82;10.43;;;538.00;1715.20;;;;;;5076422;28;20020;-62
2021/06/08 05:45:23;;;;;;;19.80;13.57;;;538.00;1740.80;;;;;;5076053;28;20108;-62
2021/06/08 05:47:49;;;;;;;16.58;10.48;;;538.10;1715.20;;;;;;5075923;28;20095;-65
2021/06/08 05:50:16;;;;;;;17.92;7.97;;;538.10;1740.80;;;;;;5076119;28;20020;-64
2021/06/08 05:52:45;;;;;;;10.02;7.35;;;538.10;1766.40;;;;;;5076107;28;20043;-63
2021/06/08 05:55:12;;;;;;;10.32;6.90;;;538.10;1740.80;;;;;;5076328;28;20534;-63
2021/06/08 05:57:38;;;;;;;9.20;6.45;;;538.20;1740.80;;;;;;5075585;28;20044;-63
2021/06/08 06:00:05;;;;;;;60.28;7.32;;;538.30;1740.80;;;;;;5075790;28;20141;-65
2021/06/08 06:02:35;;;;;;;9.60;6.28;;;538.40;1715.20;;;;;;5074419;28;20043;-63
2021/06/08 06:05:01;;;;;;;11.45;6.28;;;538.50;1715.20;;;;;;5075621;28;20134;-62
2021/06/08 06:07:27;;;;;;;12.10;6.78;;;563.20;1740.80;;;;;;5075499;28;20029;-64
2021/06/08 06:09:54;;;;;;;7.63;6.50;;;563.20;1766.40;;;;;;5075605;28;20031;-63
2021/06/08 06:12:20;;;;;;;8.73;5.68;;;563.20;1792.00;;;;;;5075457;28;20031;-63
2021/06/08 06:14:49;;;;;;;10.32;7.05;;;563.40;1766.40;;;;;;5075632;28;20481;-63
2021/06/08 06:17:16;;;;;;;9.48;6.32;;;563.50;1766.40;;;;;;5075053;28;20032;-63
2021/06/08 06:19:43;;;;;;;8.77;5.38;;;563.50;1740.80;;;;;;5074776;28;20473;-63
2021/06/08 06:22:09;;;;;;;12.60;6.28;;;563.70;1740.80;;;;;;5072159;28;20021;-63
2021/06/08 06:24:37;;;;;;;11.57;6.38;;;563.80;1740.80;;;;;;5074728;28;20036;-63
2021/06/08 06:27:04;;;;;;;15.82;6.88;;;563.90;1715.20;;;;;;5074810;28;20021;-63
2021/06/08 06:29:30;;;;;;;10.50;5.53;;;564.00;1740.80;;;;;;5071947;28;20021;-69
2021/06/08 06:31:56;;;;;;;9.50;6.30;;;564.10;1715.20;;;;;;5075187;28;20028;-64
2021/06/08 06:34:24;;;;;;;11.50;7.60;;;564.10;1715.20;;;;;;5074950;28;20474;-63
2021/06/08 06:36:51;;;;;;;12.40;8.10;;;564.10;1740.80;;;;;;5074953;28;20102;-63
2021/06/08 06:39:28;;;;;;;11.93;8.80;;;564.10;1715.20;;;;;;5074963;28;20029;-63
2021/06/08 06:41:59;;;;;;;10.00;7.82;;;564.10;1792.00;;;;;;5073933;28;20485;-66
2021/06/08 06:44:25;;;;;;;9.25;7.50;;;588.80;1715.20;;;;;;5072425;28;20119;-63
2021/06/08 06:46:52;;;;;;;11.88;6.97;;;589.00;1715.20;;;;;;5073457;28;20016;-63
2021/06/08 06:49:20;;;;;;;9.90;7.70;;;589.10;1715.20;;;;;;5072194;28;20035;-64
2021/06/08 06:51:47;;;;;;;14.40;9.05;;;589.20;1689.60;;;;;;5072451;28;20373;-63
2021/06/08 06:54:14;;;;;;;12.23;7.55;;;589.40;1664.00;;;;;;5073249;28;20477;-64
2021/06/08 06:56:40;;;;;;;9.43;7.63;;;589.50;1664.00;;;;;;5073580;28;20029;-67
2021/06/08 06:59:07;;;;;;;11.25;8.18;;;589.60;1664.00;;;;;;5074294;28;20055;-64
2021/06/08 07:01:34;;;;;;;14.07;8.90;;;614.40;1664.00;;;;;;5073166;28;20116;-68
2021/06/08 07:04:01;;;;;;;11.70;7.45;;;614.40;1638.40;;;;;;5074384;28;20020;-64
2021/06/08 07:06:28;;;;;;;11.00;6.93;;;614.50;1612.80;;;;;;5073039;28;20063;-64
2021/06/08 07:09:13;;;;;;;8.18;6.00;;;614.60;1612.80;;;;;;5033038;28;20056;-66
2021/06/08 07:11:42;;;;;;;9.75;6.53;;;614.80;1612.80;;;;;;5074155;28;20530;-63
2021/06/08 07:14:08;;;;;;;10.43;6.32;;;614.80;1587.20;;;;;;5072816;28;20119;-63
2021/06/08 07:16:35;;;;;;;8.45;5.82;;;614.90;1587.20;;;;;;5074028;28;20099;-65
2021/06/08 07:19:02;;;;;;;12.57;5.70;;;614.90;1561.60;;;;;;5073945;28;20489;-64
2021/06/08 07:21:28;;;;;;;7.53;4.45;;;615.00;1561.60;;;;;;5072706;28;20091;-64
2021/06/08 07:23:55;;;;;;;7.40;4.95;;;615.00;1587.20;;;;;;5073955;28;20024;-66
2021/06/08 07:26:24;;;;;;;7.65;5.65;;;615.20;1536.00;;;;;;5073980;28;20100;-63
2021/06/08 07:28:56;;;;;;;7.85;6.35;;;615.20;1536.00;;;;;;5073858;28;20028;-64
2021/06/08 07:31:52;;;;;;;9.88;5.18;;;615.30;1510.40;;;;;;5073983;28;20473;-65
2021/06/08 07:34:43;;;;;;;6.97;5.68;;;640.00;1510.40;;;;;;5066037;28;20064;-64
2021/06/08 07:37:17;;;;;;;10.20;5.85;;;640.00;1536.00;;;;;;5073414;28;20393;-71
2021/06/08 07:39:57;;;;;;;9.05;4.60;;;640.10;1536.00;;;;;;5073647;28;20059;-66
2021/06/08 07:42:42;;;;;;;6.53;4.20;;;640.00;1536.00;;;;;;5073812;28;20477;-71
2021/06/08 07:45:11;;;;;;;10.13;3.80;;;640.00;1510.40;;;;;;5074075;28;20389;-66
2021/06/08 07:47:39;;;;;;;11.13;3.90;;;640.10;1484.80;;;;;;5073732;28;20024;-69
2021/06/08 07:50:08;;;;;;;10.68;3.42;;;640.20;1510.40;;;;;;5073534;28;20016;-69
2021/06/08 07:52:35;;;;;;;6.85;3.25;;;640.30;1433.60;;;;;;5073048;28;20381;-70
2021/06/08 07:55:02;;;;;;;6.90;2.92;;;640.30;1433.60;;;;;;5066917;28;20040;-72
2021/06/08 07:57:28;;;;;;;8.57;3.30;;;640.50;1433.60;;;;;;5071899;28;20060;-69
2021/06/08 07:59:54;;;;;;;7.18;3.30;;;640.50;1408.00;;;;;;5071419;28;20036;-67
2021/06/08 08:02:21;;;;;;;6.57;2.78;;;640.50;1408.00;;;;;;5072194;28;20357;-70
2021/06/08 08:04:52;;;;;;;10.93;3.00;;;640.60;1382.40;;;;;;5071710;28;20024;-70
2021/06/08 08:07:22;;;;;;;6.38;3.08;;;640.60;1331.20;;;;;;5072067;28;20024;-69
2021/06/08 08:09:55;;;;;;;8.02;3.33;;;640.70;1305.60;;;;;;5071145;28;20048;-69
2021/06/08 08:12:22;;;;;;;3.65;2.65;;;640.70;1331.20;;;;;;5070918;28;20291;-68
2021/06/08 08:14:51;;;;;;;6.43;2.90;;;640.70;1382.40;;;;;;5071772;28;20052;-71
2021/06/08 08:17:22;;;;;;;6.10;2.90;;;640.60;1331.20;;;;;;5072015;28;20089;-70
2021/06/08 08:19:48;;;;;;;8.23;2.83;;;640.70;1331.20;;;;;;5071681;28;20029;-72
2021/06/08 08:22:14;;;;;;;6.68;2.85;;;640.70;1356.80;;;;;;5071517;28;20396;-67
2021/06/08 08:24:40;;;;;;;7.05;2.83;;;640.80;1280.00;;;;;;5071634;28;20043;-70
2021/06/08 08:27:07;;;;;;;6.35;2.78;;;640.90;1280.00;;;;;;5071256;28;20392;-71
2021/06/08 08:29:34;;;;;;;4.63;2.90;;;665.60;1331.20;;;;;;5071261;28;20029;-69
2021/06/08 08:32:01;;;;;;;10.52;2.90;;;665.60;1331.20;;;;;;5068220;28;20100;-71
2021/06/08 08:34:26;;;;;;;6.70;3.00;;;665.70;1331.20;;;;;;5071406;28;20033;-70
2021/06/08 08:36:52;;;;;;;8.45;3.00;;;665.70;1331.20;;;;;;5070165;28;20024;-71
2021/06/08 08:39:18;;;;;;;10.18;2.95;;;665.70;1331.20;;;;;;5069915;28;20024;-68
2021/06/08 08:41:45;;;;;;;12.70;3.05;;;665.80;1331.20;;;;;;5070321;28;20021;-67
2021/06/08 08:44:11;;;;;;;6.97;2.38;;;665.80;1305.60;;;;;;5069450;28;20024;-72
2021/06/08 08:46:37;;;;;;;5.63;2.40;;;665.80;1305.60;;;;;;5070724;28;20032;-68
2021/06/08 08:49:05;;;;;;;8.63;2.90;;;665.90;1280.00;;;;;;5070599;28;20481;-70
2021/06/08 08:51:33;;;;;;;5.75;3.08;;;665.90;1254.40;;;;;;5071083;28;20029;-68
2021/06/08 08:54:01;;;;;;;12.55;2.88;;;665.80;1280.00;;;;;;5071336;28;20531;-72
2021/06/08 08:56:28;;;;;;;10.18;3.00;;;665.80;1280.00;;;;;;5071313;28;20028;-68
2021/06/08 08:58:54;;;;;;;11.82;3.33;;;666.00;1203.20;;;;;;5070929;28;20057;-68
2021/06/08 09:01:21;;;;;;;10.75;2.67;;;666.00;1254.40;;;;;;5071513;28;20031;-67
2021/06/08 09:03:47;;;;;;;3.80;2.30;;;666.00;1177.60;;;;;;5070890;28;20029;-71
2021/06/08 09:06:16;;;;;;;6.28;2.35;;;666.00;1228.80;;;;;;5073494;28;20024;-68
2021/06/08 09:08:42;;;;;;;11.85;3.03;;;666.00;1203.20;;;;;;5074036;28;20031;-68
2021/06/08 09:11:11;;;;;;;8.15;3.00;;;666.00;1203.20;;;;;;5074659;28;20021;-69
2021/06/08 09:13:38;;;;;;;4.65;2.60;;;666.00;1203.20;;;;;;5075276;28;20503;-71
2021/06/08 09:16:06;;;;;;;6.30;2.53;;;666.00;1203.20;;;;;;5074288;28;20359;-68
2021/06/08 09:18:32;;;;;;;10.00;2.78;;;666.00;1203.20;;;;;;5073860;28;20432;-69
2021/06/08 09:21:15;;;;;;;14.15;2.95;;;666.00;1254.40;;;;;;5074487;28;20526;-70
2021/06/08 09:23:41;;;;;;;9.05;2.63;;;666.00;1152.00;;;;;;5074894;28;20081;-71
2021/06/08 09:26:07;;;;;;;5.10;2.80;;;666.20;1177.60;;;;;;5071590;28;20029;-70
2021/06/08 09:28:35;;;;;;;18.35;2.95;;;666.30;1177.60;;;;;;5074659;28;20017;-70
2021/06/08 09:31:19;;;;;;;4.68;2.60;;;666.30;1177.60;;;;;;5074705;28;20028;-67
2021/06/08 09:33:46;;;;;;;8.95;2.65;;;666.30;1177.60;;;;;;5074806;28;20033;-68
2021/06/08 09:36:30;;;;;;;5.13;2.78;;;666.30;1203.20;;;;;;5073074;28;20421;-67
2021/06/08 09:39:05;;;;;;;9.07;2.90;;;666.30;1203.20;;;;;;5073344;28;20052;-67
2021/06/08 09:41:44;;;;;;;8.70;3.00;;;666.40;1203.20;;;;;;5074515;28;20473;-67
2021/06/08 09:44:15;;;;;;;10.00;3.00;;;666.40;1228.80;;;;;;5074208;28;20028;-67
2021/06/08 09:46:52;;;;;;;7.30;2.75;;;666.30;1228.80;;;;;;5074801;28;20023;-66
2021/06/08 09:49:30;;;;;;;9.05;2.88;;;666.30;1228.80;;;;;;5072949;28;20024;-66
2021/06/08 09:52:01;;;;;;;6.95;3.13;;;666.40;1254.40;;;;;;5074379;28;20081;-66
2021/06/08 09:54:34;;;;;;;8.80;3.38;;;666.40;1177.60;;;;;;5075220;28;20067;-67
2021/06/08 09:57:16;;;;;;;;;;;666.40;1203.20;;;;;;5076102;28;20078;-65
2021/06/08 09:59:57;;;;;;;6.07;2.90;;;666.50;1203.20;;;;;;5075587;28;19939;-67
2021/06/08 10:02:37;;;;;;;9.57;2.75;;;666.50;1177.60;;;;;;5072994;28;20024;-68
2021/06/08 10:05:29;;;;;;;4.32;2.25;;;666.40;1203.20;;;;;;5075519;28;20470;-68
2021/06/08 10:08:01;;;;;;;7.88;4.18;;;666.30;1177.60;;;;;;5074139;28;20116;-67
2021/06/08 10:10:48;;;;;;;11.63;4.95;;;666.30;1203.20;;;;;;5074292;28;20024;-67
2021/06/08 10:13:20;;;;;;;9.27;2.95;;;666.20;1203.20;;;;;;5075731;28;20056;-68
2021/06/08 10:16:07;;;;;;;10.52;4.95;;;666.10;1126.40;;;;;;5075190;28;20111;-69
2021/06/08 10:18:42;;;;;;;10.43;6.05;;;666.10;1177.60;;;;;;5075745;28;20025;-71
2021/06/08 10:21:08;;;;;;;5.75;3.67;;;666.20;1177.60;;;;;;5075570;28;20099;-67
2021/06/08 10:23:34;;;;;;;4.60;2.83;;;666.30;1177.60;;;;;;5075252;28;20103;-67
2021/06/08 10:26:03;;;;;;;5.45;3.17;;;666.40;1100.80;;;;;;5075149;28;20112;-68
2021/06/08 10:28:30;;;;;;;4.18;2.92;;;666.40;1126.40;;;;;;5075659;28;20071;-67
2021/06/08 10:30:57;;;;;;;7.35;2.78;;;666.40;1177.60;;;;;;5075089;28;20016;-67
2021/06/08 10:33:24;;;;;;;6.15;2.97;;;666.40;1203.20;;;;;;5074427;28;20031;-69
2021/06/08 10:35:51;;;;;;;6.80;3.33;;;666.40;1152.00;;;;;;5074150;28;20024;-67
2021/06/08 10:38:18;;;;;;;6.72;2.85;;;666.40;1126.40;;;;;;5074119;28;20095;-67
2021/06/08 10:40:46;;;;;;;6.60;3.40;;;666.50;1152.00;;;;;;5072894;28;20020;-67
2021/06/08 10:43:16;;;;;;;7.57;3.30;;;666.50;1100.80;;;;;;5074033;28;20055;-69
2021/06/08 10:45:43;;;;;;;5.25;2.83;;;691.20;1126.40;;;;;;5074260;28;20540;-67
2021/06/08 10:48:19;;;;;;;4.30;2.80;;;691.20;1203.20;;;;;;5074529;28;20097;-69
2021/06/08 10:50:48;;;;;;;5.32;2.80;;;691.20;1177.60;;;;;;5074566;28;20017;-66
2021/06/08 10:53:34;;;;;;;6.97;2.42;;;691.20;1126.40;;;;;;5074303;28;20025;-67
2021/06/08 10:56:01;;;;;;;6.88;2.88;;;666.50;1152.00;;;;;;5075043;28;20051;-67
2021/06/08 10:58:48;;;;;;;13.35;3.30;;;666.50;1126.40;;;;;;5073989;28;20382;-66
2021/06/08 11:01:38;;;;;;;7.28;3.00;;;691.20;1100.80;;;;;;5074262;28;20055;-67
2021/06/08 11:04:15;;;;;;;9.82;2.40;;;691.20;1100.80;;;;;;5074583;28;20393;-67
2021/06/08 11:06:47;;;;;;;11.45;3.22;;;691.30;1100.80;;;;;;5073963;28;20029;-71
2021/06/08 11:09:15;;;;;;;6.10;3.05;;;691.30;1075.20;;;;;;5072192;28;20074;-70
2021/06/08 11:11:42;;;;;;;5.65;3.20;;;691.30;1100.80;;;;;;5073132;28;20138;-67
2021/06/08 11:14:07;;;;;;;5.88;3.13;;;691.30;1100.80;;;;;;5073352;28;20477;-67
2021/06/08 11:16:34;;;;;;;7.90;2.97;;;691.30;1100.80;;;;;;5073640;28;20047;-68
2021/06/08 11:19:01;;;;;;;8.65;3.00;;;691.20;1100.80;;;;;;5073749;28;20021;-67
2021/06/08 11:21:29;;;;;;;7.32;2.95;;;691.20;1100.80;;;;;;5073572;28;20096;-68
2021/06/08 11:23:55;;;;;;;8.35;3.67;;;691.20;1024.00;;;;;;5074083;28;20028;-66
2021/06/08 11:26:49;;;;;;;5.55;3.00;;;666.50;1049.60;;;;;;5074288;28;20020;-66
2021/06/08 11:29:53;;;;;;;9.63;4.50;;;666.50;1100.80;;;;;;5073668;28;20039;-67
2021/06/08 11:32:31;;;;;;;5.70;2.67;;;691.20;1100.80;;;;;;5073779;28;20070;-67
2021/06/08 11:35:06;;;;;;;6.15;2.90;;;691.20;1100.80;;;;;;5073689;28;20029;-67
2021/06/08 11:37:50;;;;;;;8.75;4.05;;;691.40;1024.00;;;;;;5073860;28;20023;-67
2021/06/08 11:40:45;;;;;;;9.25;4.28;;;691.40;1049.60;;;;;;5074133;28;20025;-68
2021/06/08 11:43:11;;;;;;;9.13;3.08;;;691.50;1100.80;;;;;;5073917;28;20023;-67
2021/06/08 11:45:59;;;;;;;4.72;2.60;;;691.60;1075.20;;;;;;5072226;28;20024;-68
2021/06/08 11:48:31;;;;;;;7.60;3.90;;;691.70;1049.60;;;;;;5072058;28;20049;-69
2021/06/08 11:50:58;;;;;;;4.03;2.90;;;691.70;1049.60;;;;;;5070780;28;20043;-69
2021/06/08 11:53:25;;;;;;;35.97;6.22;;;691.80;1049.60;;;;;;5073123;28;20040;-67
2021/06/08 11:56:11;;;;;;;5.05;2.80;;;691.80;1024.00;;;;;;5072419;28;20035;-68
2021/06/08 11:58:39;;;;;;;8.25;3.17;;;691.90;947.20;;;;;;5071259;28;20074;-68
2021/06/08 12:01:07;;;;;;;5.90;2.72;;;692.00;998.40;;;;;;5071625;28;20020;-69
2021/06/08 12:03:38;;;;;;;7.13;3.13;;;692.00;998.40;;;;;;5071946;28;20032;-68
2021/06/08 12:06:06;;;;;;;4.72;2.60;;;692.00;1024.00;;;;;;5072528;28;20366;-70
2021/06/08 12:08:35;;;;;;;8.02;2.80;;;692.10;972.80;;;;;;5071969;28;20020;-70
2021/06/08 12:11:17;;;;;;;9.43;3.20;;;716.80;998.40;;;;;;5071689;28;20024;-70
2021/06/08 12:13:44;;;;;;;4.00;2.78;;;716.90;1024.00;;;;;;5072252;28;20039;-68
2021/06/08 12:16:14;;;;;;;4.88;2.92;;;716.90;1024.00;;;;;;5072448;28;20513;-71
2021/06/08 12:18:40;;;;;;;6.82;2.78;;;716.90;998.40;;;;;;5071670;28;20032;-69
2021/06/08 12:21:14;;;;;;;8.73;2.85;;;716.80;1024.00;;;;;;5072471;28;20020;-68
2021/06/08 12:23:41;;;;;;;10.68;2.90;;;692.10;1024.00;;;;;;5071408;28;20032;-69
2021/06/08 12:26:12;;;;;;;10.25;3.00;;;692.00;1024.00;;;;;;5071175;28;20036;-68